sensor_id;sensor_type;location;lat;lon;timestamp;temperature;humidity
7496;DHT22;3789;47.064;15.482;2023-05-10T00:01:36;10.50;99.90
7496;DHT22;3789;47.064;15.482;2023-05-10T00:04:07;10.50;99.90
7496;DHT22;3789;47.064;15.482;2023-05-10T00:06:36;10.40;99.90
7496;DHT22;3789;47.064;15.482;2023-05-10T00:09:07;10.20;99.90
7496;DHT22;3789;47.064;15.482;2023-05-10T00:11:39;10.00;99.90
7496;DHT22;3789;47.064;15.482;2023-05-10T00:14:09;9.80;99.90
7496;DHT22;3789;47.064;15.482;2023-05-10T00:16:46;9.60;99.90
7496;DHT22;3789;47.064;15.482;2023-05-10T00:19:14;9.40;99.90
7496;DHT22;3789;47.064;15.482;2023-05-10T00:21:44;9.30;99.90
7496;DHT22;3789;47.064;15.482;2023-05-10T00:24:11;9.30;99.90
7496;DHT22;3789;47.064;15.482;2023-05-10T00:26:41;9.40;99.90
7496;DHT22;3789;47.064;15.482;2023-05-10T00:29:11;9.40;99.90
7496;DHT22;3789;47.064;15.482;2023-05-10T00:31:51;9.60;99.90
7496;DHT22;3789;47.064;15.482;2023-05-10T00:34:23;9.60;99.90
7496;DHT22;3789;47.064;15.482;2023-05-10T00:36:55;9.60;99.90
7496;DHT22;3789;47.064;15.482;2023-05-10T00:39:25;9.50;99.90
7496;DHT22;3789;47.064;15.482;2023-05-10T00:41:57;9.30;99.90
7496;DHT22;3789;47.064;15.482;2023-05-10T00:44:26;9.30;99.90
7496;DHT22;3789;47.064;15.482;2023-05-10T00:46:56;9.20;99.90
7496;DHT22;3789;47.064;15.482;2023-05-10T00:49:25;9.20;99.90
7496;DHT22;3789;47.064;15.482;2023-05-10T00:51:58;9.20;99.90
7496;DHT22;3789;47.064;15.482;2023-05-10T00:54:28;9.30;99.90
7496;DHT22;3789;47.064;15.482;2023-05-10T00:56:57;9.30;99.90
7496;DHT22;3789;47.064;15.482;2023-05-10T00:59:30;9.20;99.90
7496;DHT22;3789;47.064;15.482;2023-05-10T01:01:58;9.30;99.90
7496;DHT22;3789;47.064;15.482;2023-05-10T01:04:28;9.20;99.90
7496;DHT22;3789;47.064;15.482;2023-05-10T01:07:06;9.20;99.90
7496;DHT22;3789;47.064;15.482;2023-05-10T01:09:40;9.10;99.90
7496;DHT22;3789;47.064;15.482;2023-05-10T01:12:09;9.20;99.90
7496;DHT22;3789;47.064;15.482;2023-05-10T01:14:39;9.20;99.90
7496;DHT22;3789;47.064;15.482;2023-05-10T01:17:08;9.20;99.90
7496;DHT22;3789;47.064;15.482;2023-05-10T01:19:41;9.10;99.90
7496;DHT22;3789;47.064;15.482;2023-05-10T01:35:43;9.30;99.90
7496;DHT22;3789;47.064;15.482;2023-05-10T01:42:00;9.20;99.90
7496;DHT22;3789;47.064;15.482;2023-05-10T01:50:43;9.30;99.90
7496;DHT22;3789;47.064;15.482;2023-05-10T01:53:14;9.20;99.90
7496;DHT22;3789;47.064;15.482;2023-05-10T01:55:50;9.00;99.90
7496;DHT22;3789;47.064;15.482;2023-05-10T01:58:34;8.90;99.90
7496;DHT22;3789;47.064;15.482;2023-05-10T02:01:15;8.90;99.90
7496;DHT22;3789;47.064;15.482;2023-05-10T02:03:46;8.90;99.90
7496;DHT22;3789;47.064;15.482;2023-05-10T02:06:20;8.70;99.90
7496;DHT22;3789;47.064;15.482;2023-05-10T02:08:49;8.80;99.90
7496;DHT22;3789;47.064;15.482;2023-05-10T02:11:23;8.80;99.90
7496;DHT22;3789;47.064;15.482;2023-05-10T02:13:53;8.90;99.90
7496;DHT22;3789;47.064;15.482;2023-05-10T02:16:27;9.00;99.90
7496;DHT22;3789;47.064;15.482;2023-05-10T02:19:03;8.90;99.90
7496;DHT22;3789;47.064;15.482;2023-05-10T02:21:37;8.90;99.90
7496;DHT22;3789;47.064;15.482;2023-05-10T02:24:23;9.00;99.90
7496;DHT22;3789;47.064;15.482;2023-05-10T02:27:06;8.90;99.90
7496;DHT22;3789;47.064;15.482;2023-05-10T02:29:50;8.90;99.90
7496;DHT22;3789;47.064;15.482;2023-05-10T02:32:22;8.90;99.90
7496;DHT22;3789;47.064;15.482;2023-05-10T02:34:54;8.70;99.90
7496;DHT22;3789;47.064;15.482;2023-05-10T02:37:28;8.60;99.90
7496;DHT22;3789;47.064;15.482;2023-05-10T02:40:10;8.60;99.90
7496;DHT22;3789;47.064;15.482;2023-05-10T02:42:42;8.70;99.90
7496;DHT22;3789;47.064;15.482;2023-05-10T02:45:27;8.80;99.90
7496;DHT22;3789;47.064;15.482;2023-05-10T02:48:00;8.80;99.90
7496;DHT22;3789;47.064;15.482;2023-05-10T02:50:33;8.70;99.90
7496;DHT22;3789;47.064;15.482;2023-05-10T02:53:18;8.50;99.90
7496;DHT22;3789;47.064;15.482;2023-05-10T02:55:53;8.20;99.90
7496;DHT22;3789;47.064;15.482;2023-05-10T02:58:27;8.10;99.90
7496;DHT22;3789;47.064;15.482;2023-05-10T03:00:56;7.90;99.90
7496;DHT22;3789;47.064;15.482;2023-05-10T03:03:27;7.90;99.90
7496;DHT22;3789;47.064;15.482;2023-05-10T03:06:04;7.80;99.90
7496;DHT22;3789;47.064;15.482;2023-05-10T03:08:33;7.80;99.90
7496;DHT22;3789;47.064;15.482;2023-05-10T03:17:41;7.60;99.90
7496;DHT22;3789;47.064;15.482;2023-05-10T03:20:30;7.50;99.90
7496;DHT22;3789;47.064;15.482;2023-05-10T03:26:24;7.60;99.90
7496;DHT22;3789;47.064;15.482;2023-05-10T03:28:53;7.60;99.90
7496;DHT22;3789;47.064;15.482;2023-05-10T03:31:26;7.60;99.90
7496;DHT22;3789;47.064;15.482;2023-05-10T03:33:56;7.60;99.90
7496;DHT22;3789;47.064;15.482;2023-05-10T03:36:34;7.60;99.90
7496;DHT22;3789;47.064;15.482;2023-05-10T03:39:05;7.70;99.90
7496;DHT22;3789;47.064;15.482;2023-05-10T03:41:33;7.70;99.90
7496;DHT22;3789;47.064;15.482;2023-05-10T03:44:06;7.60;99.90
7496;DHT22;3789;47.064;15.482;2023-05-10T03:46:42;7.60;99.90
7496;DHT22;3789;47.064;15.482;2023-05-10T03:49:13;7.60;99.90
7496;DHT22;3789;47.064;15.482;2023-05-10T03:51:41;7.70;99.90
7496;DHT22;3789;47.064;15.482;2023-05-10T03:54:11;7.70;99.90
7496;DHT22;3789;47.064;15.482;2023-05-10T03:56:47;7.70;99.90
7496;DHT22;3789;47.064;15.482;2023-05-10T03:59:20;7.80;99.90
7496;DHT22;3789;47.064;15.482;2023-05-10T04:01:49;7.90;99.90
7496;DHT22;3789;47.064;15.482;2023-05-10T04:04:20;7.80;99.90
7496;DHT22;3789;47.064;15.482;2023-05-10T04:06:57;8.40;99.90
7496;DHT22;3789;47.064;15.482;2023-05-10T04:09:28;8.70;99.90
7496;DHT22;3789;47.064;15.482;2023-05-10T04:12:03;9.20;99.90
7496;DHT22;3789;47.064;15.482;2023-05-10T04:14:36;9.90;99.90
7496;DHT22;3789;47.064;15.482;2023-05-10T04:17:07;10.50;99.90
7496;DHT22;3789;47.064;15.482;2023-05-10T04:19:39;10.90;99.90
7496;DHT22;3789;47.064;15.482;2023-05-10T04:22:08;10.80;99.90
7496;DHT22;3789;47.064;15.482;2023-05-10T04:24:37;10.90;99.90
7496;DHT22;3789;47.064;15.482;2023-05-10T04:27:07;11.20;99.90
7496;DHT22;3789;47.064;15.482;2023-05-10T04:29:40;11.30;99.90
7496;DHT22;3789;47.064;15.482;2023-05-10T04:32:19;11.10;99.90
7496;DHT22;3789;47.064;15.482;2023-05-10T04:34:49;10.70;99.90
7496;DHT22;3789;47.064;15.482;2023-05-10T04:37:21;10.50;99.90
7496;DHT22;3789;47.064;15.482;2023-05-10T04:39:52;10.40;99.90
7496;DHT22;3789;47.064;15.482;2023-05-10T04:42:24;10.50;99.90
7496;DHT22;3789;47.064;15.482;2023-05-10T04:44:55;10.90;99.90
7496;DHT22;3789;47.064;15.482;2023-05-10T04:47:25;11.10;99.90
7496;DHT22;3789;47.064;15.482;2023-05-10T04:49:53;11.40;99.90
7496;DHT22;3789;47.064;15.482;2023-05-10T04:52:25;11.50;99.90
7496;DHT22;3789;47.064;15.482;2023-05-10T04:54:56;11.50;99.90
7496;DHT22;3789;47.064;15.482;2023-05-10T04:57:25;11.10;99.90
7496;DHT22;3789;47.064;15.482;2023-05-10T04:59:56;10.90;99.90
7496;DHT22;3789;47.064;15.482;2023-05-10T05:02:23;10.40;99.90
7496;DHT22;3789;47.064;15.482;2023-05-10T05:04:59;10.10;99.90
7496;DHT22;3789;47.064;15.482;2023-05-10T05:07:29;9.90;99.90
7496;DHT22;3789;47.064;15.482;2023-05-10T05:10:08;9.90;99.90
7496;DHT22;3789;47.064;15.482;2023-05-10T05:12:49;9.90;99.90
7496;DHT22;3789;47.064;15.482;2023-05-10T05:15:18;10.00;99.90
7496;DHT22;3789;47.064;15.482;2023-05-10T05:17:45;10.00;99.90
7496;DHT22;3789;47.064;15.482;2023-05-10T05:20:18;10.10;99.90
7496;DHT22;3789;47.064;15.482;2023-05-10T05:22:49;9.80;99.90
7496;DHT22;3789;47.064;15.482;2023-05-10T05:25:24;9.70;99.90
7496;DHT22;3789;47.064;15.482;2023-05-10T05:27:52;9.50;99.90
7496;DHT22;3789;47.064;15.482;2023-05-10T05:30:22;9.40;99.90
7496;DHT22;3789;47.064;15.482;2023-05-10T05:32:58;9.50;99.90
7496;DHT22;3789;47.064;15.482;2023-05-10T05:35:27;9.50;99.90
7496;DHT22;3789;47.064;15.482;2023-05-10T05:38:02;9.70;99.90
7496;DHT22;3789;47.064;15.482;2023-05-10T05:40:31;9.90;99.90
7496;DHT22;3789;47.064;15.482;2023-05-10T05:43:00;10.20;99.90
7496;DHT22;3789;47.064;15.482;2023-05-10T05:45:34;10.30;99.90
7496;DHT22;3789;47.064;15.482;2023-05-10T05:48:03;10.20;99.90
7496;DHT22;3789;47.064;15.482;2023-05-10T05:50:41;10.10;99.90
7496;DHT22;3789;47.064;15.482;2023-05-10T05:53:17;10.00;99.90
7496;DHT22;3789;47.064;15.482;2023-05-10T05:55:57;10.10;99.90
7496;DHT22;3789;47.064;15.482;2023-05-10T05:58:38;10.20;99.90
7496;DHT22;3789;47.064;15.482;2023-05-10T06:01:07;10.40;99.90
7496;DHT22;3789;47.064;15.482;2023-05-10T06:03:43;10.50;99.90
7496;DHT22;3789;47.064;15.482;2023-05-10T06:06:14;10.50;99.90
7496;DHT22;3789;47.064;15.482;2023-05-10T06:08:43;10.80;99.90
7496;DHT22;3789;47.064;15.482;2023-05-10T06:11:12;11.00;99.90
7496;DHT22;3789;47.064;15.482;2023-05-10T06:13:44;11.20;99.90
7496;DHT22;3789;47.064;15.482;2023-05-10T06:16:21;11.40;99.90
7496;DHT22;3789;47.064;15.482;2023-05-10T06:18:52;11.70;99.90
7496;DHT22;3789;47.064;15.482;2023-05-10T06:21:24;11.90;99.90
7496;DHT22;3789;47.064;15.482;2023-05-10T06:23:53;11.90;99.90
7496;DHT22;3789;47.064;15.482;2023-05-10T06:26:20;11.80;99.90
7496;DHT22;3789;47.064;15.482;2023-05-10T06:28:52;11.70;99.90
7496;DHT22;3789;47.064;15.482;2023-05-10T06:31:28;11.50;99.90
7496;DHT22;3789;47.064;15.482;2023-05-10T06:34:00;11.40;99.90
7496;DHT22;3789;47.064;15.482;2023-05-10T06:36:31;11.30;99.90
7496;DHT22;3789;47.064;15.482;2023-05-10T06:39:00;11.30;99.90
7496;DHT22;3789;47.064;15.482;2023-05-10T06:41:36;11.40;99.90
7496;DHT22;3789;47.064;15.482;2023-05-10T06:44:07;11.40;99.90
7496;DHT22;3789;47.064;15.482;2023-05-10T06:46:36;11.50;99.90
7496;DHT22;3789;47.064;15.482;2023-05-10T06:49:07;11.70;99.90
7496;DHT22;3789;47.064;15.482;2023-05-10T06:51:36;11.80;99.90
7496;DHT22;3789;47.064;15.482;2023-05-10T06:54:05;11.90;99.90
7496;DHT22;3789;47.064;15.482;2023-05-10T06:56:34;11.90;99.90
7496;DHT22;3789;47.064;15.482;2023-05-10T06:59:02;12.10;99.90
7496;DHT22;3789;47.064;15.482;2023-05-10T07:01:33;12.30;99.90
7496;DHT22;3789;47.064;15.482;2023-05-10T07:04:01;12.50;99.90
7496;DHT22;3789;47.064;15.482;2023-05-10T07:06:32;12.70;99.90
7496;DHT22;3789;47.064;15.482;2023-05-10T07:09:02;12.90;99.90
7496;DHT22;3789;47.064;15.482;2023-05-10T07:11:31;13.00;99.90
7496;DHT22;3789;47.064;15.482;2023-05-10T07:14:03;13.00;99.90
7496;DHT22;3789;47.064;15.482;2023-05-10T07:16:35;13.10;99.90
7496;DHT22;3789;47.064;15.482;2023-05-10T07:19:04;13.10;99.90
7496;DHT22;3789;47.064;15.482;2023-05-10T07:21:35;12.90;99.90
7496;DHT22;3789;47.064;15.482;2023-05-10T07:24:06;12.90;99.90
7496;DHT22;3789;47.064;15.482;2023-05-10T07:26:34;12.80;99.90
7496;DHT22;3789;47.064;15.482;2023-05-10T07:29:02;12.70;99.90
7496;DHT22;3789;47.064;15.482;2023-05-10T07:31:33;12.70;99.90
7496;DHT22;3789;47.064;15.482;2023-05-10T07:34:02;12.80;99.90
7496;DHT22;3789;47.064;15.482;2023-05-10T07:36:33;12.90;99.90
7496;DHT22;3789;47.064;15.482;2023-05-10T07:39:11;13.00;99.90
7496;DHT22;3789;47.064;15.482;2023-05-10T07:41:54;12.90;99.90
7496;DHT22;3789;47.064;15.482;2023-05-10T07:44:25;13.10;99.90
7496;DHT22;3789;47.064;15.482;2023-05-10T07:46:56;13.30;99.90
7496;DHT22;3789;47.064;15.482;2023-05-10T07:49:26;13.50;99.90
7496;DHT22;3789;47.064;15.482;2023-05-10T07:51:55;13.60;99.90
7496;DHT22;3789;47.064;15.482;2023-05-10T07:54:31;13.60;99.90
7496;DHT22;3789;47.064;15.482;2023-05-10T07:57:18;13.80;99.90
7496;DHT22;3789;47.064;15.482;2023-05-10T08:00:12;14.00;99.90
7496;DHT22;3789;47.064;15.482;2023-05-10T08:02:46;14.10;99.90
7496;DHT22;3789;47.064;15.482;2023-05-10T08:05:15;14.00;99.90
7496;DHT22;3789;47.064;15.482;2023-05-10T08:07:46;14.00;99.90
7496;DHT22;3789;47.064;15.482;2023-05-10T08:10:26;14.10;99.90
7496;DHT22;3789;47.064;15.482;2023-05-10T08:13:03;14.30;99.90
7496;DHT22;3789;47.064;15.482;2023-05-10T08:15:35;14.30;99.90
7496;DHT22;3789;47.064;15.482;2023-05-10T08:18:04;14.50;99.90
7496;DHT22;3789;47.064;15.482;2023-05-10T08:20:38;14.60;99.90
7496;DHT22;3789;47.064;15.482;2023-05-10T08:23:08;14.60;99.90
7496;DHT22;3789;47.064;15.482;2023-05-10T08:25:40;14.80;99.90
7496;DHT22;3789;47.064;15.482;2023-05-10T08:28:09;14.70;99.90
7496;DHT22;3789;47.064;15.482;2023-05-10T08:30:40;14.50;99.90
7496;DHT22;3789;47.064;15.482;2023-05-10T08:33:10;14.50;99.90
7496;DHT22;3789;47.064;15.482;2023-05-10T08:35:41;14.40;99.90
7496;DHT22;3789;47.064;15.482;2023-05-10T08:38:10;14.40;99.90
7496;DHT22;3789;47.064;15.482;2023-05-10T08:40:58;14.40;99.90
7496;DHT22;3789;47.064;15.482;2023-05-10T08:44:03;14.60;99.90
7496;DHT22;3789;47.064;15.482;2023-05-10T08:46:40;14.60;99.90
7496;DHT22;3789;47.064;15.482;2023-05-10T08:49:13;14.70;99.90
7496;DHT22;3789;47.064;15.482;2023-05-10T08:52:05;14.80;99.90
7496;DHT22;3789;47.064;15.482;2023-05-10T08:54:36;14.80;99.90
7496;DHT22;3789;47.064;15.482;2023-05-10T08:57:04;14.80;99.90
7496;DHT22;3789;47.064;15.482;2023-05-10T08:59:34;14.90;99.90
7496;DHT22;3789;47.064;15.482;2023-05-10T09:02:18;14.90;99.90
7496;DHT22;3789;47.064;15.482;2023-05-10T09:04:52;14.50;99.90
7496;DHT22;3789;47.064;15.482;2023-05-10T09:07:21;14.60;99.90
7496;DHT22;3789;47.064;15.482;2023-05-10T09:09:49;14.80;99.90
7496;DHT22;3789;47.064;15.482;2023-05-10T09:12:20;15.20;99.90
7496;DHT22;3789;47.064;15.482;2023-05-10T09:14:52;15.40;99.90
7496;DHT22;3789;47.064;15.482;2023-05-10T09:17:23;15.50;99.90
7496;DHT22;3789;47.064;15.482;2023-05-10T09:20:00;15.60;99.90
7496;DHT22;3789;47.064;15.482;2023-05-10T09:22:31;15.90;99.90
7496;DHT22;3789;47.064;15.482;2023-05-10T09:25:10;16.10;99.90
7496;DHT22;3789;47.064;15.482;2023-05-10T09:27:44;16.30;99.90
7496;DHT22;3789;47.064;15.482;2023-05-10T09:30:29;16.40;99.90
7496;DHT22;3789;47.064;15.482;2023-05-10T09:32:59;16.30;99.90
7496;DHT22;3789;47.064;15.482;2023-05-10T09:35:33;16.30;99.90
7496;DHT22;3789;47.064;15.482;2023-05-10T09:38:04;16.40;99.90
7496;DHT22;3789;47.064;15.482;2023-05-10T09:40:34;16.60;99.90
7496;DHT22;3789;47.064;15.482;2023-05-10T09:43:07;16.50;99.90
7496;DHT22;3789;47.064;15.482;2023-05-10T09:45:36;16.70;99.90
7496;DHT22;3789;47.064;15.482;2023-05-10T09:48:06;16.70;99.90
7496;DHT22;3789;47.064;15.482;2023-05-10T09:50:35;16.60;99.90
7496;DHT22;3789;47.064;15.482;2023-05-10T09:53:04;16.60;99.90
7496;DHT22;3789;47.064;15.482;2023-05-10T09:55:46;16.50;99.90
7496;DHT22;3789;47.064;15.482;2023-05-10T09:58:17;16.50;99.90
7496;DHT22;3789;47.064;15.482;2023-05-10T10:00:49;15.80;99.90
7496;DHT22;3789;47.064;15.482;2023-05-10T10:03:23;15.60;99.90
7496;DHT22;3789;47.064;15.482;2023-05-10T10:05:55;15.80;99.90
7496;DHT22;3789;47.064;15.482;2023-05-10T10:08:24;16.00;99.90
7496;DHT22;3789;47.064;15.482;2023-05-10T10:11:00;16.20;99.90
7496;DHT22;3789;47.064;15.482;2023-05-10T10:13:30;15.60;99.90
7496;DHT22;3789;47.064;15.482;2023-05-10T10:16:08;15.10;99.90
7496;DHT22;3789;47.064;15.482;2023-05-10T10:18:45;15.20;99.90
7496;DHT22;3789;47.064;15.482;2023-05-10T10:21:16;15.90;99.90
7496;DHT22;3789;47.064;15.482;2023-05-10T10:23:45;16.30;99.90
7496;DHT22;3789;47.064;15.482;2023-05-10T10:26:15;16.20;99.90
7496;DHT22;3789;47.064;15.482;2023-05-10T10:32:42;17.10;99.90
7496;DHT22;3789;47.064;15.482;2023-05-10T10:35:45;16.30;99.90
7496;DHT22;3789;47.064;15.482;2023-05-10T10:38:16;16.20;99.90
7496;DHT22;3789;47.064;15.482;2023-05-10T10:40:45;16.60;99.90
7496;DHT22;3789;47.064;15.482;2023-05-10T10:43:28;17.00;99.90
7496;DHT22;3789;47.064;15.482;2023-05-10T10:46:25;17.10;99.90
7496;DHT22;3789;47.064;15.482;2023-05-10T10:49:11;17.10;99.90
7496;DHT22;3789;47.064;15.482;2023-05-10T10:51:39;17.10;99.90
7496;DHT22;3789;47.064;15.482;2023-05-10T10:54:18;16.80;99.90
7496;DHT22;3789;47.064;15.482;2023-05-10T10:57:20;16.70;99.90
7496;DHT22;3789;47.064;15.482;2023-05-10T11:03:13;16.90;99.90
7496;DHT22;3789;47.064;15.482;2023-05-10T11:05:58;16.60;99.90
7496;DHT22;3789;47.064;15.482;2023-05-10T11:08:45;16.60;99.90
7496;DHT22;3789;47.064;15.482;2023-05-10T11:11:17;16.70;99.90
7496;DHT22;3789;47.064;15.482;2023-05-10T11:13:51;16.70;99.90
7496;DHT22;3789;47.064;15.482;2023-05-10T11:16:23;16.70;99.90
7496;DHT22;3789;47.064;15.482;2023-05-10T11:19:06;16.50;99.90
7496;DHT22;3789;47.064;15.482;2023-05-10T11:21:51;16.30;99.90
7496;DHT22;3789;47.064;15.482;2023-05-10T11:24:57;16.20;99.90
7496;DHT22;3789;47.064;15.482;2023-05-10T11:27:29;16.20;99.90
7496;DHT22;3789;47.064;15.482;2023-05-10T11:29:59;16.10;99.90
7496;DHT22;3789;47.064;15.482;2023-05-10T11:32:32;16.20;99.90
7496;DHT22;3789;47.064;15.482;2023-05-10T11:35:07;16.00;99.90
7496;DHT22;3789;47.064;15.482;2023-05-10T11:37:42;15.90;99.90
7496;DHT22;3789;47.064;15.482;2023-05-10T11:40:14;15.90;99.90
7496;DHT22;3789;47.064;15.482;2023-05-10T11:42:45;16.10;99.90
7496;DHT22;3789;47.064;15.482;2023-05-10T11:45:19;16.20;99.90
7496;DHT22;3789;47.064;15.482;2023-05-10T11:47:50;16.10;99.90
7496;DHT22;3789;47.064;15.482;2023-05-10T11:50:19;16.20;99.90
7496;DHT22;3789;47.064;15.482;2023-05-10T11:53:00;16.00;99.90
7496;DHT22;3789;47.064;15.482;2023-05-10T11:55:30;15.80;99.90
7496;DHT22;3789;47.064;15.482;2023-05-10T11:58:02;15.90;99.90
7496;DHT22;3789;47.064;15.482;2023-05-10T12:00:37;16.10;99.90
7496;DHT22;3789;47.064;15.482;2023-05-10T12:03:17;16.10;99.90
7496;DHT22;3789;47.064;15.482;2023-05-10T12:05:49;16.20;99.90
7496;DHT22;3789;47.064;15.482;2023-05-10T12:08:22;16.40;99.90
7496;DHT22;3789;47.064;15.482;2023-05-10T12:11:07;16.40;99.90
7496;DHT22;3789;47.064;15.482;2023-05-10T12:13:46;16.30;99.90
7496;DHT22;3789;47.064;15.482;2023-05-10T12:16:23;16.40;99.90
7496;DHT22;3789;47.064;15.482;2023-05-10T12:18:57;16.40;99.90
7496;DHT22;3789;47.064;15.482;2023-05-10T12:21:35;16.30;99.90
7496;DHT22;3789;47.064;15.482;2023-05-10T12:24:10;16.40;99.90
7496;DHT22;3789;47.064;15.482;2023-05-10T12:26:48;16.40;99.90
7496;DHT22;3789;47.064;15.482;2023-05-10T12:29:36;16.30;99.90
7496;DHT22;3789;47.064;15.482;2023-05-10T12:32:18;16.30;99.90
7496;DHT22;3789;47.064;15.482;2023-05-10T12:34:47;16.20;99.90
7496;DHT22;3789;47.064;15.482;2023-05-10T12:37:16;16.00;99.90
7496;DHT22;3789;47.064;15.482;2023-05-10T12:39:44;16.00;99.90
7496;DHT22;3789;47.064;15.482;2023-05-10T12:42:16;16.00;99.90
7496;DHT22;3789;47.064;15.482;2023-05-10T12:44:57;15.90;99.90
7496;DHT22;3789;47.064;15.482;2023-05-10T12:47:28;16.00;99.90
7496;DHT22;3789;47.064;15.482;2023-05-10T12:49:59;16.00;99.90
7496;DHT22;3789;47.064;15.482;2023-05-10T12:52:33;15.90;99.90
7496;DHT22;3789;47.064;15.482;2023-05-10T12:55:09;15.90;99.90
7496;DHT22;3789;47.064;15.482;2023-05-10T12:57:36;15.90;99.90
7496;DHT22;3789;47.064;15.482;2023-05-10T13:00:06;15.70;99.90
7496;DHT22;3789;47.064;15.482;2023-05-10T13:02:36;15.60;99.90
7496;DHT22;3789;47.064;15.482;2023-05-10T13:05:14;15.60;99.90
7496;DHT22;3789;47.064;15.482;2023-05-10T13:07:42;15.50;99.90
7496;DHT22;3789;47.064;15.482;2023-05-10T13:10:13;15.50;99.90
7496;DHT22;3789;47.064;15.482;2023-05-10T13:12:42;15.50;99.90
7496;DHT22;3789;47.064;15.482;2023-05-10T13:15:14;15.50;99.90
7496;DHT22;3789;47.064;15.482;2023-05-10T13:17:41;15.60;99.90
7496;DHT22;3789;47.064;15.482;2023-05-10T13:20:23;15.60;99.90
7496;DHT22;3789;47.064;15.482;2023-05-10T13:22:53;15.50;99.90
7496;DHT22;3789;47.064;15.482;2023-05-10T13:25:22;15.50;99.90
7496;DHT22;3789;47.064;15.482;2023-05-10T13:27:53;15.50;99.90
7496;DHT22;3789;47.064;15.482;2023-05-10T13:30:22;15.50;99.90
7496;DHT22;3789;47.064;15.482;2023-05-10T13:32:53;15.40;99.90
7496;DHT22;3789;47.064;15.482;2023-05-10T13:35:22;15.30;99.90
7496;DHT22;3789;47.064;15.482;2023-05-10T13:37:51;15.30;99.90
7496;DHT22;3789;47.064;15.482;2023-05-10T13:40:20;15.40;99.90
7496;DHT22;3789;47.064;15.482;2023-05-10T13:42:52;15.30;99.90
7496;DHT22;3789;47.064;15.482;2023-05-10T13:45:21;15.30;99.90
7496;DHT22;3789;47.064;15.482;2023-05-10T13:47:59;15.30;99.90
7496;DHT22;3789;47.064;15.482;2023-05-10T13:50:30;15.40;99.90
7496;DHT22;3789;47.064;15.482;2023-05-10T13:53:09;15.50;99.90
7496;DHT22;3789;47.064;15.482;2023-05-10T13:55:39;15.60;99.90
7496;DHT22;3789;47.064;15.482;2023-05-10T13:58:21;15.50;99.90
7496;DHT22;3789;47.064;15.482;2023-05-10T14:00:50;15.60;99.90
7496;DHT22;3789;47.064;15.482;2023-05-10T14:03:29;15.70;99.90
7496;DHT22;3789;47.064;15.482;2023-05-10T14:05:59;15.80;99.90
7496;DHT22;3789;47.064;15.482;2023-05-10T14:08:29;15.80;99.90
7496;DHT22;3789;47.064;15.482;2023-05-10T14:10:58;15.60;99.90
7496;DHT22;3789;47.064;15.482;2023-05-10T14:13:27;15.50;99.90
7496;DHT22;3789;47.064;15.482;2023-05-10T14:15:57;15.40;99.90
7496;DHT22;3789;47.064;15.482;2023-05-10T14:18:32;15.60;99.90
7496;DHT22;3789;47.064;15.482;2023-05-10T14:21:05;15.60;99.90
7496;DHT22;3789;47.064;15.482;2023-05-10T14:23:43;15.50;99.90
7496;DHT22;3789;47.064;15.482;2023-05-10T14:26:12;15.30;99.90
7496;DHT22;3789;47.064;15.482;2023-05-10T14:28:49;15.30;99.90
7496;DHT22;3789;47.064;15.482;2023-05-10T14:31:24;15.30;99.90
7496;DHT22;3789;47.064;15.482;2023-05-10T14:33:55;15.40;99.90
7496;DHT22;3789;47.064;15.482;2023-05-10T14:36:24;15.60;99.90
7496;DHT22;3789;47.064;15.482;2023-05-10T14:39:02;15.70;99.90
7496;DHT22;3789;47.064;15.482;2023-05-10T14:41:32;15.80;99.90
7496;DHT22;3789;47.064;15.482;2023-05-10T14:44:02;15.90;99.90
7496;DHT22;3789;47.064;15.482;2023-05-10T14:46:33;16.00;99.90
7496;DHT22;3789;47.064;15.482;2023-05-10T14:49:01;16.10;99.90
7496;DHT22;3789;47.064;15.482;2023-05-10T14:51:32;16.30;99.90
7496;DHT22;3789;47.064;15.482;2023-05-10T14:54:02;16.10;99.90
7496;DHT22;3789;47.064;15.482;2023-05-10T14:56:31;16.20;99.90
7496;DHT22;3789;47.064;15.482;2023-05-10T14:59:09;16.20;99.90
7496;DHT22;3789;47.064;15.482;2023-05-10T15:01:40;16.30;99.90
7496;DHT22;3789;47.064;15.482;2023-05-10T15:04:09;16.30;99.90
7496;DHT22;3789;47.064;15.482;2023-05-10T15:06:39;16.40;99.90
7496;DHT22;3789;47.064;15.482;2023-05-10T15:09:17;16.70;99.90
7496;DHT22;3789;47.064;15.482;2023-05-10T15:11:45;16.70;99.90
7496;DHT22;3789;47.064;15.482;2023-05-10T15:14:14;16.60;99.90
7496;DHT22;3789;47.064;15.482;2023-05-10T15:16:43;16.50;99.90
7496;DHT22;3789;47.064;15.482;2023-05-10T15:19:15;16.40;99.90
7496;DHT22;3789;47.064;15.482;2023-05-10T15:21:45;16.10;99.90
7496;DHT22;3789;47.064;15.482;2023-05-10T15:24:24;16.20;99.90
7496;DHT22;3789;47.064;15.482;2023-05-10T15:26:55;16.10;99.90
7496;DHT22;3789;47.064;15.482;2023-05-10T15:29:24;16.00;99.90
7496;DHT22;3789;47.064;15.482;2023-05-10T15:32:03;15.90;99.90
7496;DHT22;3789;47.064;15.482;2023-05-10T15:34:34;15.70;99.90
7496;DHT22;3789;47.064;15.482;2023-05-10T15:44:01;15.70;99.90
7496;DHT22;3789;47.064;15.482;2023-05-10T15:46:31;15.70;99.90
7496;DHT22;3789;47.064;15.482;2023-05-10T15:49:02;15.80;99.90
7496;DHT22;3789;47.064;15.482;2023-05-10T15:51:34;16.00;99.90
7496;DHT22;3789;47.064;15.482;2023-05-10T15:54:04;16.00;99.90
7496;DHT22;3789;47.064;15.482;2023-05-10T15:56:36;16.00;99.90
7496;DHT22;3789;47.064;15.482;2023-05-10T15:59:08;16.00;99.90
7496;DHT22;3789;47.064;15.482;2023-05-10T16:01:41;15.90;99.90
7496;DHT22;3789;47.064;15.482;2023-05-10T16:04:17;15.80;99.90
7496;DHT22;3789;47.064;15.482;2023-05-10T16:06:46;15.60;99.90
7496;DHT22;3789;47.064;15.482;2023-05-10T16:09:14;15.50;99.90
7496;DHT22;3789;47.064;15.482;2023-05-10T16:11:43;15.50;99.90
7496;DHT22;3789;47.064;15.482;2023-05-10T16:14:12;15.50;99.90
7496;DHT22;3789;47.064;15.482;2023-05-10T16:16:47;15.50;99.90
7496;DHT22;3789;47.064;15.482;2023-05-10T16:19:17;15.40;99.90
7496;DHT22;3789;47.064;15.482;2023-05-10T16:21:46;15.40;99.90
7496;DHT22;3789;47.064;15.482;2023-05-10T16:24:15;15.30;99.90
7496;DHT22;3789;47.064;15.482;2023-05-10T16:26:44;15.20;99.90
7496;DHT22;3789;47.064;15.482;2023-05-10T16:29:14;15.20;99.90
7496;DHT22;3789;47.064;15.482;2023-05-10T16:31:48;15.20;99.90
7496;DHT22;3789;47.064;15.482;2023-05-10T16:34:17;15.20;99.90
7496;DHT22;3789;47.064;15.482;2023-05-10T16:36:53;15.10;99.90
7496;DHT22;3789;47.064;15.482;2023-05-10T16:39:23;15.00;99.90
7496;DHT22;3789;47.064;15.482;2023-05-10T16:41:53;15.00;99.90
7496;DHT22;3789;47.064;15.482;2023-05-10T16:44:30;15.00;99.90
7496;DHT22;3789;47.064;15.482;2023-05-10T16:47:00;15.10;99.90
7496;DHT22;3789;47.064;15.482;2023-05-10T16:49:35;15.20;99.90
7496;DHT22;3789;47.064;15.482;2023-05-10T16:52:05;15.10;99.90
7496;DHT22;3789;47.064;15.482;2023-05-10T16:54:33;15.00;99.90
7496;DHT22;3789;47.064;15.482;2023-05-10T16:57:05;15.00;99.90
7496;DHT22;3789;47.064;15.482;2023-05-10T16:59:39;15.00;99.90
7496;DHT22;3789;47.064;15.482;2023-05-10T17:02:10;15.00;99.90
7496;DHT22;3789;47.064;15.482;2023-05-10T17:04:39;15.00;99.90
7496;DHT22;3789;47.064;15.482;2023-05-10T17:07:20;14.90;99.90
7496;DHT22;3789;47.064;15.482;2023-05-10T17:09:52;14.90;99.90
7496;DHT22;3789;47.064;15.482;2023-05-10T17:12:31;14.90;99.90
7496;DHT22;3789;47.064;15.482;2023-05-10T17:15:04;14.90;99.90